createdAt,value
2022-12-08T00:01:19.456Z,45678.03
2022-12-08T00:03:46.799Z,45686.00
2022-12-08T00:06:45.976Z,45710.00
2022-12-08T00:09:23.621Z,45690.00
2022-12-08T00:11:55.322Z,45682.00
2022-12-08T00:14:31.293Z,45690.00
2022-12-08T00:17:00.336Z,45674.03
2022-12-08T00:19:27.724Z,45706.00
2022-12-08T00:21:54.617Z,45684.00
2022-12-08T00:24:22.770Z,45694.00
2022-12-08T00:26:49.587Z,45710.00
2022-12-08T00:29:17.654Z,45692.00
2022-12-08T00:31:44.571Z,45710.00
2022-12-08T00:34:12.995Z,45682.00
2022-12-08T00:36:39.720Z,45698.00
2022-12-08T00:39:06.130Z,45698.00
2022-12-08T00:41:51.091Z,45690.00
2022-12-08T00:44:18.882Z,45706.00
2022-12-08T00:46:46.761Z,45672.03
2022-12-08T00:49:13.630Z,45686.00
2022-12-08T00:51:40.943Z,45696.00
2022-12-08T00:54:07.889Z,45698.00
2022-12-08T00:56:34.933Z,45704.00
2022-12-08T00:59:01.827Z,45694.00
2022-12-08T01:01:28.355Z,45686.00
2022-12-08T01:03:55.147Z,45690.00
2022-12-08T01:06:21.533Z,45690.00
2022-12-08T01:08:48.218Z,45698.00
2022-12-08T01:11:19.233Z,45686.00
2022-12-08T01:13:46.755Z,45704.00
2022-12-08T01:16:27.305Z,45700.00
2022-12-08T01:18:53.978Z,45690.00
2022-12-08T01:21:20.973Z,45694.00
2022-12-08T01:23:47.451Z,45702.00
2022-12-08T01:26:16.081Z,45698.00
2022-12-08T01:28:43.444Z,45714.00
2022-12-08T01:31:15.553Z,45692.00
2022-12-08T01:33:42.671Z,45704.00
2022-12-08T01:36:18.369Z,45714.00
2022-12-08T01:38:44.869Z,45716.00
2022-12-08T01:41:15.643Z,45706.00
2022-12-08T01:44:08.277Z,45714.00
2022-12-08T01:46:40.051Z,45696.00
2022-12-08T01:49:29.491Z,45698.00
2022-12-08T01:52:02.803Z,45720.00
2022-12-08T01:54:34.046Z,45702.00
2022-12-08T01:57:25.394Z,45702.00
2022-12-08T02:00:02.242Z,45694.00
2022-12-08T02:02:48.197Z,45678.03
2022-12-08T02:05:16.128Z,45696.00
2022-12-08T02:07:43.901Z,45684.00
2022-12-08T02:10:13.786Z,45682.00
2022-12-08T02:12:40.268Z,45702.00
2022-12-08T02:15:07.089Z,45698.00
2022-12-08T02:17:45.197Z,45690.00
2022-12-08T02:20:37.078Z,45702.00
2022-12-08T02:23:45.384Z,45698.00
2022-12-08T02:26:50.365Z,45676.03
2022-12-08T02:29:43.868Z,45672.03
2022-12-08T02:32:25.438Z,45692.00
2022-12-08T02:35:08.581Z,45686.00
2022-12-08T02:37:45.649Z,45678.03
2022-12-08T02:40:30.796Z,45684.00
2022-12-08T02:43:03.513Z,45686.00
2022-12-08T02:45:50.229Z,45700.00
2022-12-08T02:48:16.854Z,45680.03
2022-12-08T02:50:43.625Z,45682.00
2022-12-08T02:56:04.393Z,45678.03
2022-12-08T02:58:36.650Z,45682.00
2022-12-08T03:01:12.885Z,45698.00
2022-12-08T03:03:54.583Z,45684.00
2022-12-08T03:06:32.393Z,45690.00
2022-12-08T03:09:30.344Z,45690.00
2022-12-08T03:12:10.358Z,45686.00
2022-12-08T03:14:40.691Z,45686.00
2022-12-08T03:17:08.185Z,45700.00
2022-12-08T03:19:39.319Z,45698.00
2022-12-08T03:22:07.151Z,45686.00
2022-12-08T03:24:37.929Z,45692.00
2022-12-08T03:27:12.568Z,45686.00
2022-12-08T03:29:39.099Z,45700.00
2022-12-08T03:32:23.829Z,45666.03
2022-12-08T03:34:51.553Z,45668.03
2022-12-08T03:37:18.334Z,45680.03
2022-12-08T03:39:44.812Z,45702.00
2022-12-08T03:42:11.412Z,45670.03
2022-12-08T03:44:37.889Z,45704.00
2022-12-08T03:47:04.356Z,45664.03
2022-12-08T03:49:30.809Z,45684.00
2022-12-08T03:51:57.571Z,45694.00
2022-12-08T03:54:24.315Z,45694.00
2022-12-08T03:56:50.916Z,45694.00
2022-12-08T03:59:17.391Z,45682.00
2022-12-08T04:01:43.847Z,45686.00
2022-12-08T04:04:10.292Z,45698.00
2022-12-08T04:06:37.003Z,45674.03
2022-12-08T04:09:03.613Z,45694.00
2022-12-08T04:11:30.007Z,45684.00
2022-12-08T04:13:56.497Z,45674.03
2022-12-08T04:16:25.230Z,45680.03
2022-12-08T04:18:51.854Z,45674.03
2022-12-08T04:21:18.242Z,45662.03
2022-12-08T04:23:45.261Z,45690.00
2022-12-08T04:26:12.438Z,45690.00
2022-12-08T04:28:39.659Z,45706.00
2022-12-08T04:31:07.067Z,45678.03
2022-12-08T04:33:35.058Z,45686.00
2022-12-08T04:36:03.214Z,45658.03
2022-12-08T04:38:29.789Z,45694.00
2022-12-08T04:40:56.170Z,45694.00
2022-12-08T04:43:22.655Z,45682.00
2022-12-08T04:45:49.057Z,45680.03
2022-12-08T04:48:15.473Z,45696.00
2022-12-08T04:50:43.685Z,45706.00
2022-12-08T04:53:11.253Z,45682.00
2022-12-08T04:55:44.197Z,45678.03
2022-12-08T04:58:15.363Z,45698.00
2022-12-08T05:00:41.948Z,45678.03
2022-12-08T05:03:08.413Z,45702.00
2022-12-08T05:05:34.974Z,45682.00
2022-12-08T05:08:01.629Z,45684.00
2022-12-08T05:10:28.077Z,45690.00
2022-12-08T05:12:54.631Z,45668.03
2022-12-08T05:15:21.030Z,45682.00
2022-12-08T05:17:47.467Z,45694.00
2022-12-08T05:20:14.097Z,45678.03
2022-12-08T05:22:40.549Z,45678.03
2022-12-08T05:25:07.348Z,45684.00
2022-12-08T05:27:34.090Z,45686.00
2022-12-08T05:30:01.015Z,45710.00
2022-12-08T05:32:27.678Z,45692.00
2022-12-08T05:34:54.130Z,45674.03
2022-12-08T05:37:20.603Z,45682.00
2022-12-08T05:39:46.975Z,45670.03
2022-12-08T05:42:13.420Z,45684.00
2022-12-08T05:44:39.828Z,45672.03
2022-12-08T05:47:06.219Z,45692.00
2022-12-08T05:49:32.685Z,45686.00
2022-12-08T05:51:59.046Z,45688.00
2022-12-08T05:54:25.442Z,45686.00
2022-12-08T05:56:51.791Z,45682.00
2022-12-08T05:59:18.200Z,45710.00
2022-12-08T06:01:44.677Z,45690.00
2022-12-08T06:04:11.213Z,45700.00
2022-12-08T06:06:38.435Z,45676.03
2022-12-08T06:09:05.696Z,45688.00
2022-12-08T06:11:33.228Z,45686.00
2022-12-08T06:14:00.522Z,45690.00
2022-12-08T06:16:28.001Z,45708.00
2022-12-08T06:18:55.428Z,45690.00
2022-12-08T06:21:21.945Z,45682.00
2022-12-08T06:23:52.971Z,45672.03
2022-12-08T06:26:20.481Z,45666.03
2022-12-08T06:28:47.376Z,45702.00
2022-12-08T06:31:18.657Z,45676.03
2022-12-08T06:33:46.148Z,45690.00
2022-12-08T06:36:14.637Z,45690.00
2022-12-08T06:38:43.580Z,45706.00
2022-12-08T06:41:11.132Z,45686.00
2022-12-08T06:43:38.122Z,45702.00
2022-12-08T06:46:07.682Z,45670.03
2022-12-08T06:48:34.343Z,45708.00
2022-12-08T06:51:11.859Z,45690.00
2022-12-08T06:53:38.944Z,45698.00
2022-12-08T06:56:05.837Z,45710.00
2022-12-08T06:58:33.852Z,45698.00
2022-12-08T07:01:06.256Z,45708.00
2022-12-08T07:03:32.731Z,45670.03
2022-12-08T07:06:03.725Z,45710.00
2022-12-08T07:08:31.480Z,45710.00
2022-12-08T07:10:57.887Z,45700.00
2022-12-08T07:13:24.268Z,45702.00
2022-12-08T07:15:50.922Z,45686.00
2022-12-08T07:18:17.379Z,45698.00
2022-12-08T07:20:43.827Z,45688.00
2022-12-08T07:23:10.207Z,45688.00
2022-12-08T07:25:36.664Z,45690.00
2022-12-08T07:28:08.053Z,45710.00
2022-12-08T07:30:34.474Z,45698.00
2022-12-08T07:33:02.607Z,45696.00
2022-12-08T07:35:29.005Z,45710.00
2022-12-08T07:37:55.415Z,45706.00
2022-12-08T07:40:21.802Z,45694.00
2022-12-08T07:42:48.408Z,45706.00
2022-12-08T07:45:14.805Z,45674.03
2022-12-08T07:47:41.190Z,45729.97
2022-12-08T07:50:08.398Z,45706.00
2022-12-08T07:52:35.558Z,45706.00
2022-12-08T07:55:02.201Z,45722.00
2022-12-08T07:57:28.610Z,45698.00
2022-12-08T07:59:54.986Z,45702.00
2022-12-08T08:02:24.845Z,45718.00
2022-12-08T08:04:53.099Z,45710.00
2022-12-08T08:07:19.633Z,45698.00
2022-12-08T08:09:46.027Z,45722.00
2022-12-08T08:12:30.740Z,45716.00
2022-12-08T08:14:57.923Z,45722.00
2022-12-08T08:17:24.434Z,45694.00
2022-12-08T08:19:50.857Z,45700.00
2022-12-08T08:22:17.238Z,45706.00
2022-12-08T08:24:45.218Z,45702.00
2022-12-08T08:27:12.477Z,45729.97
2022-12-08T08:29:38.875Z,45706.00
2022-12-08T08:32:05.688Z,45710.00
2022-12-08T08:34:32.422Z,45710.00
2022-12-08T08:36:59.042Z,45722.00
2022-12-08T08:39:25.463Z,45722.00
2022-12-08T08:41:51.951Z,45710.00
2022-12-08T08:44:18.337Z,45702.00
2022-12-08T08:46:44.978Z,45700.00
2022-12-08T08:49:11.383Z,45698.00
2022-12-08T08:51:37.776Z,45678.03
2022-12-08T08:54:04.386Z,45702.00
2022-12-08T08:56:30.804Z,45702.00
2022-12-08T08:58:57.299Z,45690.00
2022-12-08T09:01:28.221Z,45690.00
2022-12-08T09:03:57.740Z,45702.00
2022-12-08T09:06:24.878Z,45714.00
2022-12-08T09:08:51.403Z,45706.00
2022-12-08T09:11:18.517Z,45712.00
2022-12-08T09:13:49.298Z,45710.00
2022-12-08T09:16:16.025Z,45712.00
2022-12-08T09:18:44.258Z,45714.00
2022-12-08T09:21:14.907Z,45722.00
2022-12-08T09:23:41.355Z,45708.00
2022-12-08T09:26:08.568Z,45702.00
2022-12-08T09:28:35.125Z,45700.00
2022-12-08T09:31:01.986Z,45706.00
2022-12-08T09:33:28.450Z,45684.00
2022-12-08T09:35:54.916Z,45718.00
2022-12-08T09:38:21.479Z,45724.00
2022-12-08T09:40:53.116Z,45714.00
2022-12-08T09:43:51.468Z,45706.00
2022-12-08T09:46:19.124Z,45710.00
2022-12-08T09:48:55.534Z,45716.00
2022-12-08T09:51:27.614Z,45710.00
2022-12-08T09:54:20.492Z,45686.00
2022-12-08T09:56:48.963Z,45670.03
2022-12-08T09:59:44.746Z,45690.00
2022-12-08T10:02:26.406Z,45700.00
2022-12-08T10:04:55.401Z,45706.00
2022-12-08T10:08:04.159Z,45716.00
2022-12-08T10:10:39.146Z,45702.00
2022-12-08T10:13:17.892Z,45698.00
2022-12-08T10:16:02.495Z,45692.00
2022-12-08T10:18:31.632Z,45714.00
2022-12-08T10:21:10.009Z,45712.00
2022-12-08T10:23:39.371Z,45722.00
2022-12-08T10:26:15.391Z,45696.00
2022-12-08T10:28:45.109Z,45698.00
2022-12-08T10:31:23.432Z,45698.00
2022-12-08T10:34:21.057Z,45714.00
2022-12-08T10:37:08.701Z,45710.00
2022-12-08T10:39:40.736Z,45710.00
2022-12-08T10:42:19.789Z,45710.00
2022-12-08T10:45:02.472Z,45698.00
2022-12-08T10:47:34.800Z,45678.03
2022-12-08T10:50:09.280Z,45714.00
2022-12-08T10:52:40.081Z,45706.00
2022-12-08T10:55:17.889Z,45714.00
2022-12-08T10:57:44.640Z,45700.00
2022-12-08T11:00:29.506Z,45712.00
2022-12-08T11:03:02.418Z,45694.00
2022-12-08T11:05:33.744Z,45686.00
2022-12-08T11:08:00.990Z,45694.00
2022-12-08T11:10:34.910Z,45694.00
2022-12-08T11:13:06.733Z,45714.00
2022-12-08T11:15:37.282Z,45710.00
2022-12-08T11:18:09.506Z,45686.00
2022-12-08T11:20:41.667Z,45706.00
2022-12-08T11:23:24.093Z,45678.03
2022-12-08T11:25:54.161Z,45702.00
2022-12-08T11:28:24.244Z,45690.00
2022-12-08T11:31:00.139Z,45690.00
2022-12-08T11:33:28.394Z,45694.00
2022-12-08T11:36:00.342Z,45680.03
2022-12-08T11:38:28.323Z,45710.00
2022-12-08T11:41:01.391Z,45722.00
2022-12-08T11:43:33.569Z,45710.00
2022-12-08T11:46:09.022Z,45692.00
2022-12-08T11:48:41.145Z,45714.00
2022-12-08T11:51:16.586Z,45710.00
2022-12-08T11:54:04.024Z,45714.00
2022-12-08T11:56:46.787Z,45720.00
2022-12-08T11:59:21.034Z,45708.00
2022-12-08T12:01:47.503Z,45694.00
2022-12-08T12:04:22.467Z,45706.00
2022-12-08T12:07:19.478Z,45725.97
2022-12-08T12:10:17.811Z,45722.00
2022-12-08T12:13:25.017Z,45706.00
2022-12-08T12:16:22.367Z,45741.97
2022-12-08T12:19:00.171Z,45698.00
2022-12-08T12:21:33.625Z,45702.00
2022-12-08T12:24:25.174Z,45737.97
2022-12-08T12:26:58.582Z,45724.00
2022-12-08T12:29:29.830Z,45718.00
2022-12-08T12:32:01.784Z,45733.97
2022-12-08T12:34:31.818Z,45727.97
2022-12-08T12:37:11.978Z,45718.00
2022-12-08T12:39:57.163Z,45722.00
2022-12-08T12:42:47.122Z,45720.00
2022-12-08T12:45:16.345Z,45722.00
2022-12-08T12:48:03.203Z,45716.00
2022-12-08T12:50:36.945Z,45722.00
2022-12-08T12:53:26.359Z,45727.97
2022-12-08T12:55:57.114Z,45710.00
2022-12-08T12:58:29.915Z,45718.00
2022-12-08T13:01:11.870Z,45696.00
2022-12-08T13:03:43.322Z,45722.00
2022-12-08T13:06:14.787Z,45706.00
2022-12-08T13:08:51.025Z,45714.00
2022-12-08T13:11:17.674Z,45698.00
2022-12-08T13:14:03.340Z,45706.00
2022-12-08T13:16:38.916Z,45741.97
2022-12-08T13:19:14.538Z,45714.00
2022-12-08T13:21:41.249Z,45692.00
2022-12-08T13:24:11.000Z,45698.00
2022-12-08T13:27:04.856Z,45706.00
2022-12-08T13:29:35.441Z,45706.00
2022-12-08T13:32:04.741Z,45706.00
2022-12-08T13:34:41.888Z,45704.00
2022-12-08T13:37:11.200Z,45694.00
2022-12-08T13:39:40.654Z,45694.00
2022-12-08T13:42:35.324Z,45718.00
2022-12-08T13:45:39.687Z,45694.00
2022-12-08T13:48:55.854Z,45698.00
2022-12-08T13:57:30.815Z,45694.00
2022-12-08T14:00:18.419Z,45735.97
2022-12-08T14:02:56.189Z,45706.00
2022-12-08T14:05:47.715Z,45706.00
2022-12-08T14:08:57.847Z,45718.00
2022-12-08T14:11:33.456Z,45682.00
2022-12-08T14:14:08.808Z,45729.97
2022-12-08T14:16:52.087Z,45716.00
2022-12-08T14:19:21.776Z,45729.97
2022-12-08T14:21:55.794Z,45714.00
2022-12-08T14:24:24.198Z,45714.00
2022-12-08T14:26:53.794Z,45722.00
2022-12-08T14:29:31.220Z,45716.00
2022-12-08T14:31:58.040Z,45733.97
2022-12-08T14:34:24.574Z,45704.00
2022-12-08T14:36:52.763Z,45718.00
2022-12-08T14:39:20.836Z,45724.00
2022-12-08T14:42:07.632Z,45722.00
2022-12-08T14:44:38.896Z,45706.00
2022-12-08T14:47:09.270Z,45718.00
2022-12-08T14:49:38.760Z,45725.97
2022-12-08T14:52:12.145Z,45716.00
2022-12-08T14:54:40.069Z,45694.00
2022-12-08T14:57:07.704Z,45710.00
2022-12-08T14:59:37.775Z,45696.00
2022-12-08T15:02:10.360Z,45724.00
2022-12-08T15:04:38.961Z,45722.00
2022-12-08T15:07:12.705Z,45706.00
2022-12-08T15:09:44.928Z,45700.00
2022-12-08T15:12:14.173Z,45706.00
2022-12-08T15:14:43.997Z,45714.00
2022-12-08T15:17:40.230Z,45710.00
2022-12-08T15:20:31.713Z,45718.00
2022-12-08T15:23:01.977Z,45694.00
2022-12-08T15:25:28.420Z,45714.00
2022-12-08T15:27:56.323Z,45739.97
2022-12-08T15:30:23.206Z,45706.00
2022-12-08T15:32:52.140Z,45702.00
2022-12-08T15:35:18.669Z,45700.00
2022-12-08T15:37:46.242Z,45696.00
2022-12-08T15:40:21.574Z,45708.00
2022-12-08T15:42:48.745Z,45727.97
2022-12-08T15:45:16.710Z,45729.97
2022-12-08T15:47:44.751Z,45722.00
2022-12-08T15:50:16.588Z,45724.00
2022-12-08T15:52:43.634Z,45710.00
2022-12-08T15:55:21.411Z,45722.00
2022-12-08T16:00:56.541Z,45714.00
2022-12-08T16:04:13.884Z,45722.00
2022-12-08T16:09:23.292Z,45743.97
2022-12-08T16:12:10.187Z,45718.00
2022-12-08T16:17:25.111Z,45702.00
2022-12-08T16:19:51.877Z,45706.00
2022-12-08T16:25:24.678Z,45722.00
2022-12-08T16:28:23.118Z,45731.97
2022-12-08T16:30:41.767Z,45714.00
2022-12-08T16:33:11.179Z,45710.00
2022-12-08T16:35:37.930Z,45716.00
2022-12-08T16:38:04.484Z,45722.00
2022-12-08T16:40:31.124Z,45714.00
2022-12-08T16:42:57.616Z,45694.00
2022-12-08T16:45:29.345Z,45716.00
2022-12-08T16:47:58.252Z,45702.00
2022-12-08T16:50:30.290Z,45720.00
2022-12-08T16:53:04.320Z,45706.00
2022-12-08T16:55:31.310Z,45714.00
2022-12-08T16:57:57.766Z,45702.00
2022-12-08T17:00:27.926Z,45708.00
2022-12-08T17:02:55.365Z,45720.00
2022-12-08T17:05:23.799Z,45696.00
2022-12-08T17:07:51.878Z,45722.00
2022-12-08T17:10:20.942Z,45716.00
2022-12-08T17:12:47.385Z,45706.00
2022-12-08T17:15:16.842Z,45722.00
2022-12-08T17:17:43.408Z,45720.00
2022-12-08T17:20:13.307Z,45710.00
2022-12-08T17:22:39.706Z,45714.00
2022-12-08T17:25:06.747Z,45706.00
2022-12-08T17:27:33.505Z,45714.00
2022-12-08T17:29:59.877Z,45716.00
2022-12-08T17:32:26.818Z,45704.00
2022-12-08T17:34:53.649Z,45710.00
2022-12-08T17:37:20.080Z,45725.97
2022-12-08T17:39:46.469Z,45720.00
2022-12-08T17:42:12.877Z,45700.00
2022-12-08T17:44:39.312Z,45702.00
2022-12-08T17:47:05.731Z,45718.00
2022-12-08T17:49:34.999Z,45706.00
2022-12-08T17:52:06.844Z,45722.00
2022-12-08T17:54:34.000Z,45710.00
2022-12-08T17:57:00.470Z,45741.97
2022-12-08T17:59:28.471Z,45729.97
2022-12-08T18:01:56.605Z,45718.00
2022-12-08T18:04:23.722Z,45712.00
2022-12-08T18:06:50.435Z,45725.97
2022-12-08T18:09:17.222Z,45731.97
2022-12-08T18:11:46.146Z,45712.00
2022-12-08T18:14:14.178Z,45688.00
2022-12-08T18:16:43.466Z,45727.97
2022-12-08T18:19:11.221Z,45706.00
2022-12-08T18:21:38.596Z,45712.00
2022-12-08T18:24:05.454Z,45731.97
2022-12-08T18:26:32.511Z,45737.97
2022-12-08T18:28:58.999Z,45714.00
2022-12-08T18:31:25.816Z,45714.00
2022-12-08T18:33:53.257Z,45716.00
2022-12-08T18:36:25.219Z,45716.00
2022-12-08T18:38:52.997Z,45710.00
2022-12-08T18:41:23.309Z,45706.00
2022-12-08T18:43:50.499Z,45733.97
2022-12-08T18:46:17.037Z,45722.00
2022-12-08T18:48:47.163Z,45718.00
2022-12-08T18:51:16.404Z,45708.00
2022-12-08T18:53:44.595Z,45722.00
2022-12-08T18:56:24.055Z,45722.00
2022-12-08T18:58:50.456Z,45712.00
2022-12-08T19:01:17.165Z,45714.00
2022-12-08T19:03:58.499Z,45710.00
2022-12-08T19:06:31.128Z,45718.00
2022-12-08T19:08:57.792Z,45722.00
2022-12-08T19:11:27.158Z,45727.97
2022-12-08T19:13:54.959Z,45745.97
2022-12-08T19:16:22.498Z,45741.97
2022-12-08T19:18:49.210Z,45724.00
2022-12-08T19:21:15.618Z,45737.97
2022-12-08T19:23:42.194Z,45761.97
2022-12-08T19:26:10.333Z,45747.97
2022-12-08T19:28:37.105Z,45729.97
2022-12-08T19:31:09.097Z,45745.97
2022-12-08T19:33:36.846Z,45722.00
2022-12-08T19:36:08.643Z,45765.97
2022-12-08T19:38:55.580Z,45751.97
2022-12-08T19:41:41.220Z,45737.97
2022-12-08T19:44:36.043Z,45737.97
2022-12-08T19:47:03.374Z,45733.97
2022-12-08T19:49:29.838Z,45745.97
2022-12-08T19:51:56.943Z,45749.97
2022-12-08T19:54:23.539Z,45759.97
2022-12-08T19:56:50.205Z,45722.00
2022-12-08T19:59:16.835Z,45745.97
2022-12-08T20:01:44.167Z,45757.97
2022-12-08T20:04:18.328Z,45749.97
2022-12-08T20:06:45.555Z,45757.97
2022-12-08T20:09:12.904Z,45733.97
2022-12-08T20:11:39.695Z,45720.00
2022-12-08T20:14:07.224Z,45729.97
2022-12-08T20:16:34.414Z,45727.97
2022-12-08T20:19:01.848Z,45741.97
2022-12-08T20:21:28.515Z,45763.97
2022-12-08T20:23:54.959Z,45733.97
2022-12-08T20:26:22.521Z,45745.97
2022-12-08T20:28:49.984Z,45729.97
2022-12-08T20:31:22.152Z,45761.97
2022-12-08T20:33:48.800Z,45753.97
2022-12-08T20:36:18.566Z,45720.00
2022-12-08T20:38:49.659Z,45747.97
2022-12-08T20:41:16.474Z,45720.00
2022-12-08T20:43:45.041Z,45725.97
2022-12-08T20:46:13.626Z,45716.00
2022-12-08T20:48:40.664Z,45753.97
2022-12-08T20:51:07.379Z,45737.97
2022-12-08T20:53:33.827Z,45749.97
2022-12-08T20:56:00.290Z,45747.97
2022-12-08T20:58:26.916Z,45735.97
2022-12-08T21:00:53.465Z,45733.97
2022-12-08T21:03:20.104Z,45749.97
2022-12-08T21:05:51.408Z,45737.97
2022-12-08T21:08:19.679Z,45729.97
2022-12-08T21:10:53.494Z,45741.97
2022-12-08T21:13:20.021Z,45741.97
2022-12-08T21:15:47.281Z,45745.97
2022-12-08T21:18:15.588Z,45724.00
2022-12-08T21:20:42.722Z,45729.97
2022-12-08T21:23:09.594Z,45727.97
2022-12-08T21:25:41.365Z,45745.97
2022-12-08T21:28:08.203Z,45749.97
2022-12-08T21:30:34.909Z,45722.00
2022-12-08T21:33:01.755Z,45729.97
2022-12-08T21:35:28.277Z,45710.00
2022-12-08T21:37:54.991Z,45737.97
2022-12-08T21:40:21.389Z,45716.00
2022-12-08T21:42:47.980Z,45722.00
2022-12-08T21:45:17.268Z,45737.97
2022-12-08T21:47:45.265Z,45743.97
2022-12-08T21:50:13.042Z,45725.97
2022-12-08T21:52:42.085Z,45729.97
2022-12-08T21:55:10.805Z,45729.97
2022-12-08T21:57:37.391Z,45731.97
2022-12-08T22:00:06.606Z,45725.97
2022-12-08T22:02:34.139Z,45749.97
2022-12-08T22:05:00.932Z,45749.97
2022-12-08T22:07:27.378Z,45731.97
2022-12-08T22:09:54.220Z,45735.97
2022-12-08T22:12:20.886Z,45741.97
2022-12-08T22:14:49.906Z,45722.00
2022-12-08T22:17:16.862Z,45731.97
2022-12-08T22:19:43.385Z,45745.97
2022-12-08T22:22:10.238Z,45714.00
2022-12-08T22:24:37.047Z,45733.97
2022-12-08T22:27:04.476Z,45735.97
2022-12-08T22:29:31.174Z,45731.97
2022-12-08T22:31:57.987Z,45743.97
2022-12-08T22:34:24.922Z,45718.00
2022-12-08T22:36:51.569Z,45747.97
2022-12-08T22:39:18.406Z,45729.97
2022-12-08T22:41:45.008Z,45737.97
2022-12-08T22:44:14.219Z,45727.97
2022-12-08T22:46:41.055Z,45745.97
2022-12-08T22:49:07.753Z,45729.97
2022-12-08T22:51:37.704Z,45737.97
2022-12-08T22:54:05.524Z,45727.97
2022-12-08T22:56:31.941Z,45753.97
2022-12-08T22:58:58.504Z,45729.97
2022-12-08T23:01:31.390Z,45737.97
2022-12-08T23:03:59.457Z,45731.97
2022-12-08T23:06:27.446Z,45725.97
2022-12-08T23:08:54.771Z,45737.97
2022-12-08T23:11:23.499Z,45720.00
2022-12-08T23:13:50.683Z,45741.97
2022-12-08T23:16:17.420Z,45729.97
2022-12-08T23:18:45.871Z,45743.97
2022-12-08T23:21:15.884Z,45743.97
2022-12-08T23:23:42.915Z,45733.97
2022-12-08T23:26:18.468Z,45725.97
2022-12-08T23:28:45.294Z,45745.97
2022-12-08T23:31:11.871Z,45714.00
2022-12-08T23:33:38.701Z,45727.97
2022-12-08T23:36:05.428Z,45745.97
2022-12-08T23:38:32.232Z,45729.97
2022-12-08T23:41:04.294Z,45733.97
2022-12-08T23:43:30.863Z,45745.97
2022-12-08T23:45:57.608Z,45761.97
2022-12-08T23:48:24.531Z,45757.97
2022-12-08T23:50:51.243Z,45739.97
2022-12-08T23:53:17.682Z,45725.97
2022-12-08T23:55:44.099Z,45725.97
2022-12-08T23:58:11.091Z,45755.97
